createdAt,value
2018-04-23T00:04:00.546Z,97.00
2018-04-23T00:08:33.729Z,97.00
2018-04-23T00:13:07.686Z,97.70
2018-04-23T00:17:40.882Z,97.70
2018-04-23T00:22:14.070Z,97.70
2018-04-23T00:26:47.435Z,97.90
2018-04-23T00:31:20.596Z,98.30
2018-04-23T00:35:53.783Z,98.10
2018-04-23T00:40:27.735Z,97.90
2018-04-23T00:45:00.926Z,97.90
2018-04-23T00:49:34.114Z,98.00
2018-04-23T00:54:08.073Z,98.10
2018-04-23T00:58:41.269Z,98.00
2018-04-23T01:03:14.430Z,98.40
2018-04-23T01:07:47.618Z,98.50
2018-04-23T01:12:20.802Z,98.90
2018-04-23T01:16:53.986Z,98.50
2018-04-23T01:21:27.171Z,98.40
2018-04-23T01:26:01.121Z,98.70
2018-04-23T01:30:34.339Z,98.70
2018-04-23T01:35:07.525Z,98.80
2018-04-23T01:39:40.715Z,98.60
2018-04-23T01:44:14.689Z,98.80
2018-04-23T01:48:47.878Z,98.80
2018-04-23T01:53:21.067Z,99.10
2018-04-23T01:57:54.259Z,99.10
2018-04-23T02:02:28.209Z,99.20
2018-04-23T02:07:01.394Z,99.10
2018-04-23T02:11:35.354Z,99.40
2018-04-23T02:16:08.610Z,99.30
2018-04-23T02:20:41.771Z,99.40
2018-04-23T02:25:14.953Z,99.50
2018-04-23T02:29:48.138Z,99.60
2018-04-23T02:34:22.091Z,99.90
2018-04-23T02:38:55.302Z,99.90
2018-04-23T02:43:28.470Z,99.80
2018-04-23T02:48:02.513Z,99.90
2018-04-23T02:52:36.882Z,99.90
2018-04-23T02:57:11.033Z,99.90
2018-04-23T03:01:44.234Z,99.90
2018-04-23T03:06:17.397Z,99.90
2018-04-23T03:10:50.813Z,99.90
2018-04-23T03:15:23.977Z,99.90
2018-04-23T03:19:57.169Z,99.90
2018-04-23T03:24:30.410Z,99.90
2018-04-23T03:29:04.375Z,99.90
2018-04-23T03:33:37.539Z,99.90
2018-04-23T03:38:11.495Z,99.90
2018-04-23T03:42:44.658Z,99.90
2018-04-23T03:47:17.855Z,99.90
2018-04-23T03:51:51.052Z,99.90
2018-04-23T03:56:24.221Z,99.90
2018-04-23T04:00:57.699Z,99.90
2018-04-23T04:05:30.966Z,99.90
2018-04-23T04:10:04.162Z,99.90
2018-04-23T04:14:49.262Z,99.90
2018-04-23T04:19:22.434Z,99.90
2018-04-23T04:23:57.298Z,99.90
2018-04-23T04:28:30.610Z,99.90
2018-04-23T04:33:03.803Z,99.90
2018-04-23T04:37:37.022Z,99.90
2018-04-23T04:42:10.211Z,99.90
2018-04-23T04:46:43.380Z,99.90
2018-04-23T04:51:17.347Z,99.90
2018-04-23T04:55:50.550Z,99.90
2018-04-23T05:00:23.740Z,99.90
2018-04-23T05:04:56.940Z,99.90
2018-04-23T05:09:30.893Z,99.90
2018-04-23T05:14:04.065Z,99.90
2018-04-23T05:18:38.023Z,99.90
2018-04-23T05:23:11.261Z,99.90
2018-04-23T05:27:44.577Z,99.90
2018-04-23T05:32:18.616Z,99.90
2018-04-23T05:36:52.574Z,99.90
2018-04-23T05:41:25.784Z,99.90
2018-04-23T05:45:58.979Z,99.90
2018-04-23T05:50:32.186Z,99.90
2018-04-23T05:55:05.421Z,99.90
2018-04-23T05:59:38.582Z,99.90
2018-04-23T06:04:12.543Z,99.90
2018-04-23T06:08:45.798Z,99.90
2018-04-23T06:13:18.997Z,99.90
2018-04-23T06:17:52.185Z,99.90
2018-04-23T06:22:25.371Z,99.90
2018-04-23T06:26:58.764Z,99.90
2018-04-23T06:31:31.921Z,99.90
2018-04-23T06:36:05.117Z,99.90
2018-04-23T06:40:38.307Z,99.90
2018-04-23T06:45:11.498Z,99.90
2018-04-23T06:49:44.690Z,99.90
2018-04-23T06:54:17.903Z,99.90
2018-04-23T06:58:51.090Z,99.90
2018-04-23T07:03:25.041Z,99.90
2018-04-23T07:07:58.238Z,99.90
2018-04-23T07:12:31.517Z,99.90
2018-04-23T07:17:06.190Z,99.90
2018-04-23T07:21:39.378Z,99.90
2018-04-23T07:26:13.333Z,99.90
2018-04-23T07:30:46.517Z,99.90
2018-04-23T07:35:20.470Z,99.90
2018-04-23T07:39:53.655Z,99.90
2018-04-23T07:44:26.848Z,99.90
2018-04-23T07:49:00.803Z,98.80
2018-04-23T07:53:33.993Z,98.80
2018-04-23T07:58:07.316Z,96.50
2018-04-23T08:02:40.507Z,95.10
2018-04-23T08:07:13.868Z,94.20
2018-04-23T08:11:47.058Z,91.60
2018-04-23T08:16:20.258Z,91.70
2018-04-23T08:20:53.574Z,93.30
2018-04-23T08:25:26.773Z,93.30
2018-04-23T08:29:59.987Z,93.30
2018-04-23T08:34:33.169Z,94.00
2018-04-23T08:39:06.378Z,94.40
2018-04-23T08:43:39.586Z,92.30
2018-04-23T08:48:12.807Z,90.00
2018-04-23T08:52:45.961Z,81.50
2018-04-23T08:57:19.925Z,79.20
2018-04-23T09:01:53.197Z,79.20
2018-04-23T09:06:27.155Z,81.10
2018-04-23T09:11:00.314Z,81.10
2018-04-23T09:15:33.551Z,82.40
2018-04-23T09:20:06.739Z,87.60
2018-04-23T09:24:40.693Z,88.70
2018-04-23T09:29:13.889Z,88.60
2018-04-23T09:33:47.097Z,87.70
2018-04-23T09:38:20.263Z,88.30
2018-04-23T09:42:54.213Z,90.10
2018-04-23T09:47:28.169Z,89.10
2018-04-23T09:52:02.897Z,89.10
2018-04-23T09:56:36.185Z,86.90
2018-04-23T10:01:15.949Z,84.80
2018-04-23T10:05:49.875Z,81.90
2018-04-23T10:10:23.838Z,78.00
2018-04-23T10:14:57.005Z,78.00
2018-04-23T10:19:30.957Z,72.30
2018-04-23T10:24:04.150Z,72.20
2018-04-23T10:28:37.404Z,69.60
2018-04-23T10:33:10.581Z,60.00
2018-04-23T10:37:43.773Z,56.30
2018-04-23T10:42:16.972Z,54.20
2018-04-23T10:46:50.170Z,55.30
2018-04-23T10:51:24.097Z,60.20
2018-04-23T10:55:57.407Z,60.10
2018-04-23T11:00:30.601Z,61.90
2018-04-23T11:05:04.560Z,57.00
2018-04-23T11:09:37.763Z,57.00
2018-04-23T11:14:11.121Z,54.40
2018-04-23T11:18:44.285Z,54.30
2018-04-23T11:23:17.470Z,58.30
2018-04-23T11:27:50.665Z,59.80
2018-04-23T11:32:24.675Z,66.20
2018-04-23T11:36:57.831Z,66.10
2018-04-23T11:41:31.001Z,69.00
2018-04-23T11:46:04.962Z,71.40
2018-04-23T11:50:38.452Z,71.40
2018-04-23T11:55:11.738Z,71.10
2018-04-23T11:59:45.660Z,72.30
2018-04-23T12:04:19.997Z,70.40
2018-04-23T12:08:53.946Z,69.80
2018-04-23T12:13:27.182Z,69.70
2018-04-23T12:18:00.342Z,71.00
2018-04-23T12:22:34.359Z,76.00
2018-04-23T12:27:08.330Z,75.20
2018-04-23T12:31:41.493Z,75.00
2018-04-23T12:36:15.453Z,73.40
2018-04-23T12:40:48.617Z,73.20
2018-04-23T12:45:22.574Z,71.40
2018-04-23T12:49:55.763Z,71.20
2018-04-23T12:54:29.715Z,69.90
2018-04-23T12:59:02.907Z,69.90
2018-04-23T13:03:36.093Z,69.10
2018-04-23T13:08:10.041Z,68.10
2018-04-23T13:12:43.217Z,68.10
2018-04-23T13:17:17.166Z,68.80
2018-04-23T13:21:50.365Z,68.70
2018-04-23T13:26:23.526Z,68.60
2018-04-23T13:30:56.893Z,67.50
2018-04-23T13:35:30.066Z,67.80
2018-04-23T13:40:04.349Z,72.50
2018-04-23T13:44:37.678Z,72.40
2018-04-23T13:49:10.867Z,73.80
2018-04-23T13:53:44.059Z,72.10
2018-04-23T13:58:17.374Z,72.10
2018-04-23T14:02:50.534Z,71.90
2018-04-23T14:07:23.749Z,71.40
2018-04-23T14:11:57.699Z,72.40
2018-04-23T14:16:30.884Z,72.30
2018-04-23T14:21:04.849Z,72.20
2018-04-23T14:25:38.015Z,72.00
2018-04-23T14:30:12.306Z,66.50
2018-04-23T14:34:45.467Z,66.40
2018-04-23T14:39:18.654Z,65.70
2018-04-23T14:43:52.913Z,64.90
2018-04-23T14:48:26.139Z,64.90
2018-04-23T14:52:59.342Z,65.80
2018-04-23T14:57:32.509Z,67.60
2018-04-23T15:02:06.462Z,68.80
2018-04-23T15:06:39.650Z,68.60
2018-04-23T15:11:12.933Z,68.30
2018-04-23T15:15:46.895Z,67.00
2018-04-23T15:20:20.086Z,66.90
2018-04-23T15:24:53.361Z,68.40
2018-04-23T15:29:26.555Z,69.10
2018-04-23T15:33:59.715Z,70.90
2018-04-23T15:38:33.221Z,71.80
2018-04-23T15:43:06.406Z,73.10
2018-04-23T15:47:40.430Z,74.40
2018-04-23T15:52:14.389Z,74.80
2018-04-23T15:56:47.559Z,75.00
2018-04-23T16:01:21.514Z,78.10
2018-04-23T16:05:54.704Z,77.10
2018-04-23T16:10:28.711Z,77.60
2018-04-23T16:15:01.927Z,77.50
2018-04-23T16:19:35.885Z,78.70
2018-04-23T16:24:09.075Z,78.70
2018-04-23T16:28:42.278Z,79.30
2018-04-23T16:33:15.482Z,80.10
2018-04-23T16:37:49.408Z,81.00
2018-04-23T16:42:22.635Z,80.90
2018-04-23T16:46:55.822Z,81.00
2018-04-23T16:51:29.797Z,82.40
2018-04-23T16:56:02.961Z,82.40
2018-04-23T17:00:36.157Z,83.40
2018-04-23T17:05:10.166Z,83.60
2018-04-23T17:09:43.386Z,83.50
2018-04-23T17:14:17.333Z,84.00
2018-04-23T17:18:50.494Z,84.00
2018-04-23T17:23:25.194Z,85.00
2018-04-23T17:27:58.390Z,85.00
2018-04-23T17:32:31.578Z,85.40
2018-04-23T17:37:04.910Z,87.00
2018-04-23T17:41:38.091Z,88.20
2018-04-23T17:46:12.200Z,88.80
2018-04-23T17:50:45.368Z,89.50
2018-04-23T17:55:18.629Z,89.60
2018-04-23T17:59:51.926Z,90.00
2018-04-23T18:04:25.906Z,90.50
2018-04-23T18:08:59.079Z,90.50
2018-04-23T18:13:32.272Z,90.90
2018-04-23T18:18:06.259Z,91.20
2018-04-23T18:22:39.418Z,91.20
2018-04-23T18:27:12.603Z,91.40
2018-04-23T18:31:46.573Z,91.50
2018-04-23T18:36:19.759Z,91.50
2018-04-23T18:40:52.941Z,92.00
2018-04-23T18:45:26.977Z,92.50
2018-04-23T18:50:01.127Z,92.70
2018-04-23T18:54:34.573Z,92.70
2018-04-23T18:59:07.761Z,93.00
2018-04-23T19:03:41.122Z,93.30
2018-04-23T19:08:14.333Z,93.50
2018-04-23T19:12:47.585Z,94.00
2018-04-23T19:17:20.751Z,95.20
2018-04-23T19:21:54.747Z,96.70
2018-04-23T19:26:27.929Z,96.60
2018-04-23T19:31:01.130Z,97.30
2018-04-23T19:35:34.290Z,97.60
2018-04-23T19:40:08.248Z,98.40
2018-04-23T19:44:41.435Z,98.30
2018-04-23T19:49:14.622Z,98.80
2018-04-23T19:53:48.584Z,98.40
2018-04-23T19:58:21.743Z,98.40
2018-04-23T20:02:54.931Z,98.60
2018-04-23T20:07:29.061Z,99.90
2018-04-23T20:12:03.058Z,99.90
2018-04-23T20:16:36.235Z,99.90
2018-04-23T20:21:09.455Z,99.90
2018-04-23T20:25:42.642Z,99.90
2018-04-23T20:30:16.677Z,99.90
2018-04-23T20:34:49.862Z,99.90
2018-04-23T20:39:24.143Z,99.90
2018-04-23T20:43:57.483Z,99.90
2018-04-23T20:48:30.642Z,99.90
2018-04-23T20:53:03.990Z,99.90
2018-04-23T20:57:38.325Z,99.90
2018-04-23T21:02:11.521Z,99.90
2018-04-23T21:06:44.678Z,99.90
2018-04-23T21:11:18.635Z,99.90
2018-04-23T21:15:52.333Z,99.90
2018-04-23T21:20:25.649Z,99.90
2018-04-23T21:24:58.837Z,99.90
2018-04-23T21:29:32.789Z,99.90
2018-04-23T21:34:05.987Z,99.90
2018-04-23T21:38:39.174Z,99.90
2018-04-23T21:43:13.118Z,99.90
2018-04-23T21:47:46.301Z,99.90
2018-04-23T21:52:20.253Z,99.90
2018-04-23T21:56:53.443Z,99.90
2018-04-23T22:01:26.652Z,99.90
2018-04-23T22:05:59.854Z,99.90
2018-04-23T22:10:33.017Z,99.90
2018-04-23T22:15:06.198Z,99.90
2018-04-23T22:19:39.382Z,99.90
2018-04-23T22:24:12.534Z,99.90
2018-04-23T22:28:45.718Z,99.90
2018-04-23T22:33:18.904Z,99.90
2018-04-23T22:37:52.178Z,99.90
2018-04-23T22:42:26.106Z,99.90
2018-04-23T22:46:59.325Z,99.90
2018-04-23T22:51:33.270Z,99.90
2018-04-23T22:56:06.507Z,99.90
2018-04-23T23:00:39.698Z,99.90
2018-04-23T23:05:12.878Z,99.90
2018-04-23T23:09:46.073Z,99.90
2018-04-23T23:14:20.002Z,99.90
2018-04-23T23:18:53.370Z,99.90
2018-04-23T23:23:26.551Z,99.90
2018-04-23T23:27:59.743Z,99.90
2018-04-23T23:32:33.012Z,99.90
2018-04-23T23:37:06.955Z,99.90
2018-04-23T23:41:40.901Z,99.90
2018-04-23T23:46:14.091Z,99.90
2018-04-23T23:50:47.304Z,99.90
2018-04-23T23:55:20.490Z,99.90
2018-04-23T23:59:54.437Z,99.90
